Time;durP1;ratioP1;P1;durP2;ratioP2;P2;SDS_P1;SDS_P2;PMS_P1;PMS_P2;Temp;Humidity;BMP_temperature;BMP_pressure;BME280_temperature;BME280_humidity;BME280_pressure;Samples;Min_cycle;Max_cycle;Signal;HPM_P1;HPM_P2
2021/03/31 00:01:31;;;;;;;6.88;4.55;;;;;;;10.46;63.80;99062.31;5033025;28;20037;-75
2021/03/31 00:03:56;;;;;;;9.05;5.18;;;;;;;10.47;64.12;99059.28;5032946;28;20033;-75
2021/03/31 00:06:22;;;;;;;8.23;5.45;;;;;;;10.50;63.73;99064.22;5033033;28;20022;-75
2021/03/31 00:08:48;;;;;;;11.88;5.55;;;;;;;10.35;64.05;99050.47;5014668;28;21210;-74
2021/03/31 00:11:13;;;;;;;10.10;5.00;;;;;;;10.36;64.26;99057.59;5033350;28;20022;-74
2021/03/31 00:13:39;;;;;;;6.18;4.32;;;;;;;10.39;64.20;99056.25;5032889;28;20395;-74
2021/03/31 00:16:05;;;;;;;8.95;6.30;;;;;;;10.36;64.71;99046.66;5033129;28;20478;-74
2021/03/31 00:18:31;;;;;;;5.63;3.90;;;;;;;10.25;64.68;99055.91;5014081;28;20029;-78
2021/03/31 00:20:57;;;;;;;6.55;4.65;;;;;;;10.25;64.75;99050.44;5032044;28;20025;-74
2021/03/31 00:23:26;;;;;;;10.50;5.78;;;;;;;10.20;65.16;99050.41;5032152;28;20033;-75
2021/03/31 00:25:52;;;;;;;9.00;5.22;;;;;;;10.17;65.12;99048.22;5031838;28;20080;-76
2021/03/31 00:28:18;;;;;;;13.13;5.97;;;;;;;10.25;64.92;99044.97;5032320;28;20516;-76
2021/03/31 00:30:45;;;;;;;7.00;4.53;;;;;;;10.11;65.33;99038.31;5032812;28;20398;-75
2021/03/31 00:33:13;;;;;;;9.55;4.88;;;;;;;10.15;65.34;99036.69;5032972;28;20034;-75
2021/03/31 00:35:39;;;;;;;9.60;5.15;;;;;;;10.11;65.33;99039.13;5032230;28;20112;-75
2021/03/31 00:38:06;;;;;;;6.75;4.38;;;;;;;10.04;65.72;99043.19;5031987;28;20038;-75
2021/03/31 00:40:48;;;;;;;8.30;4.72;;;;;;;10.05;65.65;99040.19;5031861;28;20490;-75
2021/03/31 00:43:15;;;;;;;13.35;5.70;;;;;;;9.92;66.16;99042.56;5032298;28;20112;-75
2021/03/31 00:45:42;;;;;;;12.82;5.85;;;;;;;9.82;66.77;99039.78;5032453;28;20025;-75
2021/03/31 00:48:09;;;;;;;6.72;4.70;;;;;;;9.62;67.40;99040.44;5014602;28;20561;-76
2021/03/31 00:50:35;;;;;;;8.02;4.88;;;;;;;9.68;67.12;99032.03;5014403;28;20099;-77
2021/03/31 00:53:01;;;;;;;8.75;5.47;;;;;;;9.77;66.67;99039.75;5032789;28;20036;-75
2021/03/31 00:55:30;;;;;;;6.75;4.78;;;;;;;9.78;66.84;99036.75;5031730;28;20014;-75
2021/03/31 00:57:56;;;;;;;8.05;5.28;;;;;;;9.83;66.97;99041.44;5031027;28;20085;-76
2021/03/31 01:00:22;;;;;;;8.20;5.28;;;;;;;9.77;67.17;99034.28;5030779;28;20096;-75
2021/03/31 01:02:48;;;;;;;11.75;4.25;;;;;;;9.66;67.18;99038.84;5031432;28;20025;-75
2021/03/31 01:05:20;;;;;;;8.55;4.63;;;;;;;9.56;67.54;99020.47;5014077;28;20033;-75
2021/03/31 01:07:46;;;;;;;12.82;5.50;;;;;;;9.64;67.32;99028.19;5032075;28;20026;-75
2021/03/31 01:10:14;;;;;;;10.68;4.82;;;;;;;9.71;67.22;99027.94;5031666;28;20033;-75
2021/03/31 01:12:53;;;;;;;7.35;5.28;;;;;;;9.60;67.68;99026.25;5031499;28;20034;-75
2021/03/31 01:15:28;;;;;;;8.02;5.28;;;;;;;9.65;67.71;99027.09;5031798;28;20052;-75
2021/03/31 01:18:06;;;;;;;7.22;4.00;;;;;;;9.49;68.03;99022.59;5031859;28;20116;-74
2021/03/31 01:20:44;;;;;;;9.20;5.45;;;;;;;9.47;68.28;99026.69;5032852;28;20029;-75
2021/03/31 01:23:37;;;;;;;10.23;5.20;;;;;;;9.51;68.39;99023.19;5034965;28;20032;-75
2021/03/31 01:26:31;;;;;;;10.20;5.47;;;;;;;9.53;68.05;99025.63;5033798;28;20030;-75
2021/03/31 01:29:10;;;;;;;9.95;5.40;;;;;;;9.45;68.28;99024.22;4972522;28;20402;-74
2021/03/31 01:31:41;;;;;;;9.95;5.40;;;;;;;9.46;68.26;99020.41;5031218;28;20095;-75
2021/03/31 01:34:25;;;;;;;10.00;5.75;;;;;;;9.41;68.40;99022.28;5030495;28;20022;-75
2021/03/31 01:36:53;;;;;;;10.77;5.85;;;;;;;9.39;68.44;99019.00;5028218;28;20014;-75
2021/03/31 01:39:20;;;;;;;10.38;5.28;;;;;;;9.23;68.77;99014.47;5031057;28;20038;-75
2021/03/31 01:41:47;;;;;;;8.55;5.72;;;;;;;9.20;69.21;99009.53;5030541;28;20030;-75
2021/03/31 01:44:15;;;;;;;8.77;6.30;;;;;;;9.17;69.07;99005.44;5031137;28;20026;-75
2021/03/31 01:46:44;;;;;;;11.05;4.72;;;;;;;9.10;69.23;98999.38;5031382;28;20048;-75
2021/03/31 01:49:09;;;;;;;14.52;6.45;;;;;;;9.05;69.92;99008.31;5031194;28;20100;-75
2021/03/31 01:51:36;;;;;;;12.68;6.47;;;;;;;9.15;69.67;99010.31;5030315;28;20037;-75
2021/03/31 01:54:05;;;;;;;8.02;4.57;;;;;;;8.98;70.17;99012.34;5031563;28;20029;-75
2021/03/31 01:56:31;;;;;;;10.18;5.90;;;;;;;9.00;70.38;99010.19;5030404;28;20025;-74
2021/03/31 01:58:57;;;;;;;7.80;5.80;;;;;;;9.00;70.33;99010.19;5030613;28;20033;-75
2021/03/31 02:01:24;;;;;;;12.80;5.32;;;;;;;9.02;70.25;98999.84;5030880;28;20483;-76
2021/03/31 02:03:56;;;;;;;8.07;5.38;;;;;;;8.97;70.27;99006.06;5031004;28;20032;-75
2021/03/31 02:06:22;;;;;;;9.48;4.75;;;;;;;8.97;70.24;99010.69;5029573;28;20029;-75
2021/03/31 02:08:48;;;;;;;8.30;5.03;;;;;;;8.79;71.23;99011.91;5027400;28;20490;-75
2021/03/31 02:11:15;;;;;;;9.60;5.13;;;;;;;8.77;70.98;99003.13;5027436;28;20029;-75
2021/03/31 02:13:44;;;;;;;7.60;4.47;;;;;;;8.82;71.20;99008.66;5028764;28;20111;-75
2021/03/31 02:16:11;;;;;;;7.53;4.68;;;;;;;8.77;71.35;99005.06;5023261;28;20026;-76
2021/03/31 02:18:37;;;;;;;9.65;5.80;;;;;;;8.66;71.78;99008.75;5029445;28;20033;-75
2021/03/31 02:21:03;;;;;;;12.38;5.70;;;;;;;8.59;72.05;99006.22;5026438;28;20399;-76
2021/03/31 02:23:30;;;;;;;9.57;5.43;;;;;;;8.57;72.50;99008.41;5019966;28;20033;-76
2021/03/31 02:25:57;;;;;;;7.38;5.38;;;;;;;8.48;72.80;99001.75;5012869;28;20033;-76
2021/03/31 02:28:23;;;;;;;9.85;5.95;;;;;;;8.35;73.58;98999.41;5013563;28;20021;-76
2021/03/31 02:30:48;;;;;;;8.32;5.03;;;;;;;8.23;74.08;99006.88;5011472;28;20386;-76
2021/03/31 02:33:15;;;;;;;11.40;5.00;;;;;;;8.34;73.87;99016.84;5029165;28;20033;-76
2021/03/31 02:35:42;;;;;;;9.57;6.55;;;;;;;8.48;73.19;99013.50;5029126;28;20025;-76
2021/03/31 02:38:13;;;;;;;10.57;5.78;;;;;;;8.47;73.22;99011.84;5009716;28;20026;-76
2021/03/31 02:40:43;;;;;;;10.45;5.55;;;;;;;8.42;73.56;99003.59;5026744;28;20490;-76
2021/03/31 02:43:12;;;;;;;8.73;5.80;;;;;;;8.50;73.06;99011.31;5029504;28;20747;-75
2021/03/31 02:45:38;;;;;;;12.98;6.43;;;;;;;8.49;72.99;99003.38;5029116;28;20351;-75
2021/03/31 02:48:06;;;;;;;12.25;6.13;;;;;;;8.37;73.64;99003.53;5028915;28;20033;-75
2021/03/31 02:50:33;;;;;;;13.45;6.55;;;;;;;8.45;73.19;99008.56;5030043;28;20045;-75
2021/03/31 02:52:59;;;;;;;9.82;6.57;;;;;;;8.11;73.65;98993.41;5030686;28;20032;-75
2021/03/31 02:55:26;;;;;;;7.68;5.30;;;;;;;8.20;74.26;98999.22;5030079;28;20485;-75
2021/03/31 02:57:52;;;;;;;11.00;6.43;;;;;;;8.16;74.14;99001.63;5029863;28;20526;-76
2021/03/31 03:00:19;;;;;;;9.55;5.35;;;;;;;7.99;74.87;98995.41;5029822;28;20482;-75
2021/03/31 03:02:46;;;;;;;11.85;7.47;;;;;;;7.89;75.21;98992.56;5030258;28;20479;-75
2021/03/31 03:05:13;;;;;;;12.88;9.40;;;;;;;7.84;75.11;98995.19;5030207;28;20029;-75
2021/03/31 03:07:39;;;;;;;11.57;9.93;;;;;;;7.69;75.41;98989.53;5029765;28;20017;-75
2021/03/31 03:10:08;;;;;;;12.57;10.50;;;;;;;7.64;75.81;98989.50;5030512;28;20072;-75
2021/03/31 03:12:56;;;;;;;13.52;9.32;;;;;;;7.70;75.70;98988.47;5029907;28;20116;-74
2021/03/31 03:15:25;;;;;;;14.23;8.23;;;;;;;7.89;75.07;98987.13;5030660;28;20025;-75
2021/03/31 03:17:51;;;;;;;9.13;7.28;;;;;;;8.15;73.97;98990.97;5012194;28;20035;-75
2021/03/31 03:20:18;;;;;;;11.38;8.25;;;;;;;7.76;75.03;98982.84;5029624;28;20022;-75
2021/03/31 03:22:48;;;;;;;14.63;6.80;;;;;;;7.64;75.53;98975.88;5032943;28;20052;-74
2021/03/31 03:25:15;;;;;;;10.80;6.20;;;;;;;7.77;75.49;98987.22;5015809;28;20022;-75
2021/03/31 03:27:42;;;;;;;9.07;7.05;;;;;;;7.82;75.15;98989.19;5033762;28;20017;-76
2021/03/31 03:30:10;;;;;;;9.30;6.47;;;;;;;7.82;75.05;98983.75;5032298;28;20080;-76
2021/03/31 03:32:39;;;;;;;11.30;6.28;;;;;;;7.79;75.32;98986.97;5032012;28;20402;-75
2021/03/31 03:35:06;;;;;;;17.40;6.53;;;;;;;7.77;75.17;98983.69;5032292;28;20112;-75
2021/03/31 03:37:31;;;;;;;10.82;6.20;;;;;;;7.79;75.21;98993.25;5015259;28;20390;-76
2021/03/31 03:39:57;;;;;;;11.63;6.05;;;;;;;7.60;76.09;98988.34;5033139;28;20039;-75
2021/03/31 03:42:22;;;;;;;12.52;6.57;;;;;;;7.49;76.78;98990.91;5041656;28;20018;-76
2021/03/31 03:44:48;;;;;;;8.18;5.72;;;;;;;7.61;76.30;98990.00;5017016;28;20456;-76
2021/03/31 03:47:17;;;;;;;11.38;6.15;;;;;;;7.50;76.67;98989.00;5034011;28;20716;-76
2021/03/31 03:49:42;;;;;;;17.70;7.05;;;;;;;7.53;77.08;98993.94;5033329;28;20045;-76
2021/03/31 03:52:09;;;;;;;12.75;7.57;;;;;;;7.55;76.99;98999.97;5033308;28;20108;-75
2021/03/31 03:54:34;;;;;;;19.52;8.02;;;;;;;7.55;76.92;98995.34;5033625;28;20017;-75
2021/03/31 03:57:00;;;;;;;13.10;7.03;;;;;;;7.60;76.79;99004.66;5031910;28;20083;-76
2021/03/31 03:59:28;;;;;;;11.20;7.45;;;;;;;7.64;76.65;99001.22;5013949;28;20083;-75
2021/03/31 04:01:53;;;;;;;10.52;6.75;;;;;;;7.70;76.32;98994.75;5032943;28;20022;-75
2021/03/31 04:04:20;;;;;;;9.35;6.22;;;;;;;7.76;76.04;99001.09;5033264;28;20876;-75
2021/03/31 04:06:45;;;;;;;11.18;6.72;;;;;;;7.68;76.68;99001.50;5035542;28;20061;-76
2021/03/31 04:09:12;;;;;;;12.93;6.35;;;;;;;7.60;76.90;99001.94;5035866;28;20049;-75
2021/03/31 04:11:39;;;;;;;13.73;6.03;;;;;;;7.61;76.51;98998.16;5034827;28;20038;-79
2021/03/31 04:14:05;;;;;;;10.07;6.63;;;;;;;7.36;77.23;98988.53;5038975;28;20029;-79
2021/03/31 04:16:33;;;;;;;7.65;5.35;;;;;;;7.40;77.77;98997.00;5037996;28;20029;-75
2021/03/31 04:19:05;;;;;;;8.32;4.95;;;;;;;7.68;76.61;99001.50;5037960;28;20044;-74
2021/03/31 04:21:33;;;;;;;6.10;5.45;;;;;;;7.61;76.73;99001.72;5037747;28;20034;-74
2021/03/31 04:23:59;;;;;;;8.23;5.63;;;;;;;7.46;77.02;98993.28;5037911;28;20548;-75
2021/03/31 04:26:26;;;;;;;8.57;5.28;;;;;;;7.49;77.28;99004.50;5019874;28;20033;-75
2021/03/31 04:28:53;;;;;;;12.88;6.43;;;;;;;7.54;76.98;99006.50;5034698;28;20483;-75
2021/03/31 04:31:23;;;;;;;13.25;6.88;;;;;;;7.64;77.01;99005.81;5036647;28;20076;-75
2021/03/31 04:33:50;;;;;;;7.57;5.50;;;;;;;7.71;76.59;99003.72;5011618;28;20060;-76
2021/03/31 04:36:16;;;;;;;13.60;5.90;;;;;;;7.63;76.44;99004.16;5032062;28;20064;-74
2021/03/31 04:38:50;;;;;;;11.38;6.30;;;;;;;7.60;76.67;99005.50;5014502;28;20025;-76
2021/03/31 04:41:19;;;;;;;7.68;5.85;;;;;;;7.54;76.92;99007.31;5032626;28;20028;-75
2021/03/31 04:43:45;;;;;;;9.25;6.05;;;;;;;7.50;77.09;99003.44;5015191;28;20520;-74
2021/03/31 04:46:10;;;;;;;11.40;6.07;;;;;;;7.42;77.07;99003.06;5032668;28;20033;-74
2021/03/31 04:48:37;;;;;;;14.55;8.05;;;;;;;7.51;77.07;99009.72;5013754;28;20124;-75
2021/03/31 04:51:05;;;;;;;18.63;6.55;;;;;;;7.45;77.10;98997.94;5014728;28;20049;-75
2021/03/31 04:53:31;;;;;;;15.90;7.18;;;;;;;7.46;77.12;99005.00;5031829;28;20080;-75
2021/03/31 04:55:56;;;;;;;22.05;6.20;;;;;;;7.56;76.85;99007.06;5014210;28;20037;-75
2021/03/31 04:58:22;;;;;;;21.40;10.18;;;;;;;7.74;76.65;99019.56;5031911;28;20116;-75
2021/03/31 05:00:47;;;;;;;13.05;7.88;;;;;;;7.92;75.66;99013.84;5032084;28;20026;-75
2021/03/31 05:03:13;;;;;;;16.90;7.15;;;;;;;7.95;75.38;99013.34;5031301;28;20071;-75
2021/03/31 05:05:42;;;;;;;17.77;5.55;;;;;;;7.87;75.64;99014.59;5030843;28;20057;-76
2021/03/31 05:08:08;;;;;;;13.00;6.93;;;;;;;7.91;75.27;99018.47;5009669;28;20112;-75
2021/03/31 05:10:34;;;;;;;10.45;5.57;;;;;;;7.90;75.20;99021.44;5030682;28;20112;-76
2021/03/31 05:13:00;;;;;;;14.32;6.50;;;;;;;7.83;75.43;99009.91;5031076;28;20014;-75
2021/03/31 05:15:25;;;;;;;10.23;6.40;;;;;;;7.79;75.70;99014.19;5032098;28;20033;-76
2021/03/31 05:17:51;;;;;;;12.68;6.32;;;;;;;7.99;75.44;99019.91;5031673;28;20033;-77
2021/03/31 05:20:16;;;;;;;14.20;6.30;;;;;;;8.09;74.69;99020.88;5031241;28;20036;-76
2021/03/31 05:22:42;;;;;;;10.88;5.50;;;;;;;8.26;74.11;99009.94;5031791;28;20029;-76
2021/03/31 05:25:09;;;;;;;16.75;7.22;;;;;;;8.28;73.87;99007.78;5024418;28;20467;-75
2021/03/31 05:27:35;;;;;;;11.45;7.20;;;;;;;8.52;73.49;99011.88;5012389;28;20063;-75
2021/03/31 05:30:02;;;;;;;13.82;7.65;;;;;;;8.45;73.35;99002.28;5031666;28;20390;-75
2021/03/31 05:32:27;;;;;;;14.70;8.07;;;;;;;8.43;73.45;99007.97;5030633;28;20427;-75
2021/03/31 05:34:53;;;;;;;13.55;7.47;;;;;;;8.47;73.40;99011.84;5031050;28;20079;-74
2021/03/31 05:37:18;;;;;;;17.80;8.60;;;;;;;8.49;73.55;99009.66;5013111;28;20032;-75
2021/03/31 05:39:44;;;;;;;12.93;8.73;;;;;;;8.52;73.30;99013.81;5030401;28;20099;-75
2021/03/31 05:42:10;;;;;;;11.18;7.53;;;;;;;8.59;73.01;99004.31;5029940;28;20053;-75
2021/03/31 05:44:36;;;;;;;10.00;6.55;;;;;;;8.63;72.69;99003.81;5030592;28;20033;-76
2021/03/31 05:47:03;;;;;;;11.25;6.70;;;;;;;8.71;72.44;99004.16;5031348;28;20022;-74
2021/03/31 05:49:30;;;;;;;10.70;7.03;;;;;;;8.84;71.92;99011.94;5030549;28;20071;-75
2021/03/31 05:51:57;;;;;;;16.40;9.35;;;;;;;9.09;71.02;98997.72;5031159;28;20022;-75
2021/03/31 05:54:23;;;;;;;15.77;6.28;;;;;;;9.29;70.53;99006.06;5013596;28;20479;-74
2021/03/31 05:56:51;;;;;;;15.85;7.50;;;;;;;9.55;69.54;99007.88;5031618;28;20064;-77
2021/03/31 05:59:16;;;;;;;15.10;8.27;;;;;;;9.60;69.51;99004.38;5033196;28;20548;-76
2021/03/31 06:01:42;;;;;;;17.55;8.82;;;;;;;9.65;69.41;99007.97;5032847;28;20033;-76
2021/03/31 06:04:08;;;;;;;17.08;8.70;;;;;;;9.76;68.96;99008.88;5031415;28;20033;-74
2021/03/31 06:06:33;;;;;;;15.43;8.27;;;;;;;10.13;67.35;99014.25;5031471;28;20068;-74
2021/03/31 06:08:59;;;;;;;17.58;10.15;;;;;;;9.76;68.88;99002.56;5031192;28;20471;-74
2021/03/31 06:11:24;;;;;;;20.80;10.95;;;;;;;9.80;69.01;98995.50;5030347;28;20021;-74
2021/03/31 06:13:57;;;;;;;26.83;11.73;;;;;;;10.17;70.23;98999.00;5031530;28;20026;-75
2021/03/31 06:16:36;;;;;;;20.20;11.00;;;;;;;10.26;66.97;99002.88;5030764;28;20040;-73
2021/03/31 06:19:22;;;;;;;15.77;8.80;;;;;;;10.16;67.01;99002.81;5017757;28;20037;-75
2021/03/31 06:22:28;;;;;;;16.60;8.93;;;;;;;10.34;67.84;99004.28;5030291;28;20115;-75
2021/03/31 06:25:16;;;;;;;13.93;8.23;;;;;;;10.44;66.59;98996.09;5030381;28;20552;-75
2021/03/31 06:27:41;;;;;;;13.68;7.32;;;;;;;10.37;65.70;99006.47;5029468;28;20025;-76
2021/03/31 06:30:19;;;;;;;16.30;8.18;;;;;;;10.51;65.20;99000.22;5028681;28;20028;-75
2021/03/31 06:32:45;;;;;;;15.80;8.27;;;;;;;10.73;63.84;98991.78;5028113;28;20509;-75
2021/03/31 06:35:18;;;;;;;10.13;6.57;;;;;;;10.95;63.04;98988.81;5028242;28;20018;-76
2021/03/31 06:37:43;;;;;;;14.15;8.68;;;;;;;11.17;62.78;98982.00;5027823;28;20029;-75
2021/03/31 06:40:28;;;;;;;13.15;8.75;;;;;;;11.34;61.92;98984.44;5028207;28;20486;-75
2021/03/31 06:43:21;;;;;;;15.25;7.47;;;;;;;11.49;60.75;98994.56;5028599;28;20033;-75
2021/03/31 06:48:24;;;;;;;16.00;7.65;;;;;;;11.66;60.27;98992.34;5030142;28;20045;-75
2021/03/31 06:50:50;;;;;;;10.63;7.50;;;;;;;11.72;60.48;98994.00;5030336;28;20501;-75
2021/03/31 06:53:28;;;;;;;12.13;6.82;;;;;;;11.70;60.04;98983.34;5030240;28;20029;-75
2021/03/31 06:56:06;;;;;;;10.95;6.97;;;;;;;11.68;59.73;98980.00;5015232;28;20387;-76
2021/03/31 06:58:33;;;;;;;16.90;6.57;;;;;;;11.78;59.34;98984.66;5033933;28;20025;-76
2021/03/31 07:00:59;;;;;;;16.05;7.75;;;;;;;11.64;59.86;98978.94;5034215;28;20367;-75
2021/03/31 07:03:24;;;;;;;12.18;6.68;;;;;;;12.16;62.12;98980.44;5033917;28;20030;-75
2021/03/31 07:05:49;;;;;;;13.63;6.65;;;;;;;12.26;60.09;98991.38;5033354;28;20113;-77
2021/03/31 07:08:18;;;;;;;17.77;7.68;;;;;;;12.36;58.53;98980.38;5032727;28;20033;-75
2021/03/31 07:10:50;;;;;;;9.90;7.43;;;;;;;12.46;57.88;98972.09;5033647;28;20484;-74
2021/03/31 07:13:27;;;;;;;13.77;6.72;;;;;;;13.10;57.34;98979.38;5033218;28;20067;-75
2021/03/31 07:15:54;;;;;;;15.45;7.47;;;;;;;13.16;55.78;98976.31;5016034;28;20018;-74
2021/03/31 07:18:25;;;;;;;11.18;7.95;;;;;;;13.63;54.69;98975.63;5033509;28;20025;-75
2021/03/31 07:20:50;;;;;;;12.85;8.77;;;;;;;13.99;53.24;98972.50;5033895;28;20100;-74
2021/03/31 07:23:16;;;;;;;15.50;7.70;;;;;;;14.04;53.10;98970.50;5034060;28;20123;-74
2021/03/31 07:25:42;;;;;;;14.30;8.48;;;;;;;14.65;52.53;98986.28;5033500;28;20037;-74
2021/03/31 07:28:08;;;;;;;12.98;9.05;;;;;;;14.84;50.81;98978.88;5033616;28;20811;-75
2021/03/31 07:30:35;;;;;;;14.57;7.07;;;;;;;14.96;50.65;98982.81;5033498;28;20125;-74
2021/03/31 07:33:09;;;;;;;10.60;6.55;;;;;;;15.46;49.77;98975.66;5033216;28;20547;-73
2021/03/31 07:35:36;;;;;;;10.20;6.88;;;;;;;15.23;48.63;98979.34;5034563;28;20033;-72
2021/03/31 07:38:04;;;;;;;14.75;8.00;;;;;;;16.38;46.56;98977.53;5033679;28;20120;-74
2021/03/31 07:40:38;;;;;;;18.60;7.78;;;;;;;16.64;46.20;98975.88;5015799;28;20025;-74
2021/03/31 07:43:14;;;;;;;19.48;7.18;;;;;;;16.13;46.85;98975.28;5032652;28;20443;-74
2021/03/31 07:45:42;;;;;;;12.15;7.97;;;;;;;16.54;46.39;98973.31;5032833;28;20113;-74
2021/03/31 07:48:10;;;;;;;10.77;6.88;;;;;;;15.68;48.64;98964.00;5015421;28;20033;-74
2021/03/31 07:50:35;;;;;;;10.43;7.05;;;;;;;16.04;48.64;98975.16;5032889;28;20080;-75
2021/03/31 07:53:03;;;;;;;11.63;7.22;;;;;;;16.82;46.11;98974.91;5033186;28;20041;-74
2021/03/31 07:55:40;;;;;;;15.95;8.15;;;;;;;16.92;44.05;98963.63;5033577;28;20028;-75
2021/03/31 07:58:25;;;;;;;11.75;7.45;;;;;;;17.71;45.31;98972.22;5033665;28;20022;-75
2021/03/31 08:00:57;;;;;;;12.57;6.80;;;;;;;18.37;41.24;98970.41;5033167;28;20462;-74
2021/03/31 08:03:24;;;;;;;10.05;7.05;;;;;;;19.80;38.27;98974.72;5032746;28;20029;-73
2021/03/31 08:06:09;;;;;;;13.20;6.78;;;;;;;20.15;37.49;98976.25;5032092;28;20030;-74
2021/03/31 08:08:36;;;;;;;12.27;6.85;;;;;;;21.07;36.18;98980.00;5033204;28;20034;-73
2021/03/31 08:11:02;;;;;;;14.57;6.72;;;;;;;20.81;35.64;98977.41;5032502;28;20351;-73
2021/03/31 08:13:34;;;;;;;9.23;6.15;;;;;;;20.28;36.50;98969.69;5033036;28;20030;-75
2021/03/31 08:16:20;;;;;;;8.82;6.25;;;;;;;21.83;34.48;98971.31;5033608;28;20462;-73
2021/03/31 08:18:46;;;;;;;9.93;7.32;;;;;;;21.22;34.49;98968.28;5027671;28;20037;-73
2021/03/31 08:21:26;;;;;;;10.07;6.30;;;;;;;21.61;33.70;98968.94;5032666;28;20068;-72
2021/03/31 08:23:54;;;;;;;19.98;6.88;;;;;;;22.65;33.42;98967.38;5032352;28;20037;-74
2021/03/31 08:26:41;;;;;;;9.20;5.35;;;;;;;22.06;32.70;98963.38;5014881;28;20028;-73
2021/03/31 08:29:18;;;;;;;18.15;6.32;;;;;;;22.08;32.49;98959.09;5037581;28;20505;-73
2021/03/31 08:31:46;;;;;;;10.60;6.68;;;;;;;21.84;32.67;98953.44;5038022;28;20033;-76
2021/03/31 08:34:13;;;;;;;7.50;4.90;;;;;;;21.84;32.37;98953.44;5020949;28;20701;-75
2021/03/31 08:36:40;;;;;;;7.35;4.72;;;;;;;21.52;32.82;98962.63;5040926;28;20030;-73
2021/03/31 08:39:08;;;;;;;10.93;5.43;;;;;;;22.60;31.38;98958.41;5045289;28;20032;-74
2021/03/31 08:41:39;;;;;;;9.70;5.80;;;;;;;22.59;31.31;98953.97;5025260;28;20038;-74
2021/03/31 08:44:22;;;;;;;11.40;5.03;;;;;;;23.71;29.70;98959.41;5045388;28;20025;-73
2021/03/31 08:47:08;;;;;;;6.68;4.47;;;;;;;23.10;31.05;98964.41;5048141;28;20533;-76
2021/03/31 08:49:33;;;;;;;10.48;5.47;;;;;;;22.67;30.61;98953.91;5026311;28;20042;-75
2021/03/31 08:52:05;;;;;;;11.35;5.20;;;;;;;22.43;30.64;98949.09;5022358;28;20049;-74
2021/03/31 08:54:38;;;;;;;9.95;5.43;;;;;;;22.57;30.20;98948.78;5013982;28;20084;-74
2021/03/31 08:57:05;;;;;;;9.98;5.32;;;;;;;23.10;31.33;98956.03;5013304;28;20108;-74
2021/03/31 08:59:34;;;;;;;12.02;5.07;;;;;;;22.79;30.09;98950.28;5012185;28;20034;-73
2021/03/31 09:02:00;;;;;;;7.35;5.03;;;;;;;24.02;29.52;98941.91;5012368;28;20477;-74
2021/03/31 09:04:27;;;;;;;10.55;5.75;;;;;;;23.68;28.90;98943.34;5012561;28;20045;-74
2021/03/31 09:06:54;;;;;;;8.57;5.45;;;;;;;24.89;28.17;98938.88;5026249;28;20026;-73
2021/03/31 09:09:20;;;;;;;8.02;5.55;;;;;;;24.16;28.96;98936.69;5013779;28;20033;-73
2021/03/31 09:11:45;;;;;;;8.73;4.90;;;;;;;23.90;29.34;98923.19;5014228;28;20060;-74
2021/03/31 09:14:17;;;;;;;10.23;4.70;;;;;;;23.73;28.73;98928.31;5031971;28;20038;-73
2021/03/31 09:16:52;;;;;;;41.40;32.38;;;;;;;24.64;27.97;98929.06;5031931;28;20030;-73
2021/03/31 09:19:20;;;;;;;15.95;7.15;;;;;;;24.36;27.53;98923.59;5012960;28;20427;-74
2021/03/31 09:21:46;;;;;;;8.25;5.85;;;;;;;24.33;27.18;98924.31;5031689;28;20029;-74
2021/03/31 09:24:15;;;;;;;50.42;31.83;;;;;;;24.18;27.58;98914.78;5031878;28;20033;-74
2021/03/31 09:26:41;;;;;;;13.43;4.75;;;;;;;25.25;28.06;98910.44;5036740;28;20474;-75
2021/03/31 09:29:16;;;;;;;10.65;5.07;;;;;;;24.74;26.26;98906.09;5031650;28;20588;-74
2021/03/31 09:31:43;;;;;;;;;;;;;;;25.59;25.41;98903.16;5031897;28;20100;-75
2021/03/31 09:34:09;;;;;;;11.25;4.85;;;;;;;26.51;24.14;98899.16;5013471;28;19913;-75
2021/03/31 09:36:35;;;;;;;7.43;4.75;;;;;;;25.28;26.86;98900.50;5031364;28;20021;-74
2021/03/31 09:39:00;;;;;;;10.43;4.90;;;;;;;26.17;25.34;98897.41;5031248;28;20440;-74
2021/03/31 09:41:27;;;;;;;8.27;4.10;;;;;;;26.92;24.55;98897.38;5030951;28;20116;-74
2021/03/31 09:43:53;;;;;;;6.30;3.97;;;;;;;26.90;24.37;98899.78;5031597;28;20061;-74
2021/03/31 09:46:23;;;;;;;10.93;4.57;;;;;;;26.36;25.25;98889.72;5034381;28;20037;-74
2021/03/31 09:48:50;;;;;;;9.80;4.40;;;;;;;26.07;25.30;98880.00;5036200;28;20087;-74
2021/03/31 09:51:15;;;;;;;6.47;3.65;;;;;;;26.63;25.69;98887.72;5036192;28;20029;-75
2021/03/31 09:53:43;;;;;;;9.63;3.75;;;;;;;27.16;23.94;98877.22;5035720;28;20088;-73
2021/03/31 09:56:12;;;;;;;8.70;4.22;;;;;;;26.99;24.55;98877.81;5036419;28;20100;-73
2021/03/31 09:58:40;;;;;;;16.60;7.07;;;;;;;25.60;25.38;98875.94;5033105;28;20897;-74
2021/03/31 10:01:10;;;;;;;7.05;4.22;;;;;;;25.40;25.68;98863.94;5013016;28;20065;-72
2021/03/31 10:03:37;;;;;;;11.13;4.43;;;;;;;26.07;24.61;98856.75;5016604;28;20037;-74
2021/03/31 10:06:16;;;;;;;9.18;3.70;;;;;;;27.87;22.87;98866.81;5019104;28;20456;-73
2021/03/31 10:08:43;;;;;;;6.75;3.15;;;;;;;26.88;24.63;98860.81;5031032;28;20034;-73
2021/03/31 10:11:23;;;;;;;11.05;4.40;;;;;;;29.28;21.21;98856.53;5012644;28;20025;-74
2021/03/31 10:13:54;;;;;;;10.80;4.07;;;;;;;28.11;22.22;98857.78;5030235;28;20049;-73
2021/03/31 10:16:19;;;;;;;6.63;3.70;;;;;;;27.58;22.39;98858.09;5030603;28;20025;-75
2021/03/31 10:18:45;;;;;;;7.43;3.40;;;;;;;27.44;22.67;98851.50;5030623;28;20041;-73
2021/03/31 10:21:11;;;;;;;10.02;4.50;;;;;;;28.25;22.48;98835.41;5030429;28;20089;-72
2021/03/31 10:23:38;;;;;;;5.82;3.75;;;;;;;28.62;23.03;98836.03;5030264;28;20119;-74
2021/03/31 10:26:19;;;;;;;6.95;4.00;;;;;;;28.91;20.91;98837.03;5029798;28;20453;-73
2021/03/31 10:28:44;;;;;;;6.47;2.83;;;;;;;28.43;20.82;98825.06;5030143;28;20375;-73
2021/03/31 10:31:38;;;;;;;4.32;3.10;;;;;;;28.34;20.87;98820.97;5029883;28;20025;-73
2021/03/31 10:34:04;;;;;;;7.65;3.78;;;;;;;27.92;21.54;98815.78;5027554;28;20453;-73
2021/03/31 10:37:04;;;;;;;5.60;3.60;;;;;;;29.35;20.22;98817.09;5030877;28;20026;-74
2021/03/31 10:50:06;;;;;;;10.85;6.18;;;;;;;28.34;20.38;98798.47;5030006;28;20046;-72
2021/03/31 10:52:36;;;;;;;5.53;4.88;;;;;;;27.88;20.17;98786.84;5012068;28;20528;-75
2021/03/31 10:55:02;;;;;;;6.32;4.68;;;;;;;28.71;18.91;98790.66;5030334;28;20037;-73
2021/03/31 10:57:28;;;;;;;28.13;20.35;;;;;;;27.61;19.88;98778.56;5029745;28;20436;-73
2021/03/31 10:59:53;;;;;;;12.23;7.28;;;;;;;27.79;20.27;98767.47;5029984;28;20033;-74
2021/03/31 11:02:18;;;;;;;5.30;4.20;;;;;;;28.32;20.00;98773.50;5029966;28;20562;-74
2021/03/31 11:04:44;;;;;;;5.55;3.60;;;;;;;28.77;19.92;98771.34;5029974;28;20084;-73
2021/03/31 11:07:09;;;;;;;21.15;4.38;;;;;;;27.62;20.47;98765.31;5030350;28;20112;-73
2021/03/31 11:09:35;;;;;;;5.82;4.15;;;;;;;26.76;21.76;98759.13;5029900;28;20087;-73
2021/03/31 11:12:00;;;;;;;7.70;4.05;;;;;;;25.99;22.56;98757.66;5030073;28;20401;-74
2021/03/31 11:14:28;;;;;;;5.50;4.18;;;;;;;25.27;23.39;98748.41;5030044;28;20156;-74
2021/03/31 11:17:07;;;;;;;5.07;3.78;;;;;;;25.12;23.61;98743.75;5029803;28;20018;-73
2021/03/31 11:27:29;;;;;;;10.32;4.25;;;;;;;23.05;25.51;98730.19;5030386;28;20039;-74
2021/03/31 11:29:55;;;;;;;6.47;3.63;;;;;;;23.21;25.77;98728.19;5032784;28;20430;-75
2021/03/31 11:32:20;;;;;;;9.75;4.00;;;;;;;23.50;25.09;98723.34;5031108;28;20533;-74
2021/03/31 11:34:47;;;;;;;6.88;3.47;;;;;;;23.74;24.41;98715.59;5011579;28;20017;-74
2021/03/31 11:37:12;;;;;;;6.15;3.75;;;;;;;23.66;24.77;98699.00;5031307;28;20034;-73
2021/03/31 11:39:37;;;;;;;6.53;3.88;;;;;;;23.42;25.11;98706.44;5033087;28;21078;-74
2021/03/31 11:42:03;;;;;;;26.25;19.00;;;;;;;23.09;24.05;98686.41;5033944;28;20033;-73
2021/03/31 11:44:28;;;;;;;12.85;7.22;;;;;;;23.22;24.02;98693.53;5032538;28;20029;-74
2021/03/31 11:46:54;;;;;;;5.68;3.88;;;;;;;23.20;24.26;98689.47;5014326;28;20017;-74
2021/03/31 11:49:19;;;;;;;5.53;3.75;;;;;;;23.27;25.30;98682.09;5032060;28;20042;-73
2021/03/31 11:51:46;;;;;;;11.23;3.85;;;;;;;23.04;25.50;98685.84;5032379;28;20033;-73
2021/03/31 11:54:12;;;;;;;4.20;3.40;;;;;;;23.33;25.18;98675.06;5037712;28;20010;-74
2021/03/31 11:56:37;;;;;;;4.88;3.05;;;;;;;23.41;25.08;98674.09;5039939;28;20024;-75
2021/03/31 11:59:03;;;;;;;5.57;3.75;;;;;;;23.33;24.22;98672.28;5036429;28;20045;-75
2021/03/31 12:01:28;;;;;;;14.00;3.00;;;;;;;23.15;24.19;98667.41;5032780;28;20026;-72